sensor_id;sensor_type;location;lat;lon;timestamp;P1;durP1;ratioP1;P2;durP2;ratioP2
3700;SDS011;1866;48.374;10.766;2023-01-28T00:01:39;104.60;;;16.50;;
3700;SDS011;1866;48.374;10.766;2023-01-28T00:04:08;101.22;;;15.48;;
3700;SDS011;1866;48.374;10.766;2023-01-28T00:06:36;104.60;;;16.70;;
3700;SDS011;1866;48.374;10.766;2023-01-28T00:09:03;101.20;;;14.43;;
3700;SDS011;1866;48.374;10.766;2023-01-28T00:11:30;104.57;;;14.95;;
3700;SDS011;1866;48.374;10.766;2023-01-28T00:13:57;101.53;;;16.30;;
3700;SDS011;1866;48.374;10.766;2023-01-28T00:16:25;99.85;;;15.55;;
3700;SDS011;1866;48.374;10.766;2023-01-28T00:18:52;106.68;;;16.98;;
3700;SDS011;1866;48.374;10.766;2023-01-28T00:21:21;104.03;;;17.25;;
3700;SDS011;1866;48.374;10.766;2023-01-28T00:23:49;104.30;;;16.05;;
3700;SDS011;1866;48.374;10.766;2023-01-28T00:26:18;104.22;;;16.20;;
3700;SDS011;1866;48.374;10.766;2023-01-28T00:28:46;103.60;;;16.42;;
3700;SDS011;1866;48.374;10.766;2023-01-28T00:31:16;105.57;;;16.65;;
3700;SDS011;1866;48.374;10.766;2023-01-28T00:33:44;108.60;;;18.10;;
3700;SDS011;1866;48.374;10.766;2023-01-28T00:36:12;106.00;;;16.50;;
3700;SDS011;1866;48.374;10.766;2023-01-28T00:38:41;101.07;;;15.40;;
3700;SDS011;1866;48.374;10.766;2023-01-28T00:41:09;109.90;;;16.77;;
3700;SDS011;1866;48.374;10.766;2023-01-28T00:43:37;108.53;;;16.65;;
3700;SDS011;1866;48.374;10.766;2023-01-28T00:46:05;100.57;;;15.15;;
3700;SDS011;1866;48.374;10.766;2023-01-28T00:48:33;103.35;;;15.77;;
3700;SDS011;1866;48.374;10.766;2023-01-28T00:51:00;111.20;;;16.70;;
3700;SDS011;1866;48.374;10.766;2023-01-28T00:53:27;106.47;;;15.90;;
3700;SDS011;1866;48.374;10.766;2023-01-28T00:55:57;103.10;;;16.25;;
3700;SDS011;1866;48.374;10.766;2023-01-28T00:58:26;110.40;;;16.02;;
3700;SDS011;1866;48.374;10.766;2023-01-28T01:00:53;104.28;;;15.52;;
3700;SDS011;1866;48.374;10.766;2023-01-28T01:03:20;102.78;;;15.65;;
3700;SDS011;1866;48.374;10.766;2023-01-28T01:05:51;104.10;;;15.95;;
3700;SDS011;1866;48.374;10.766;2023-01-28T01:08:18;106.47;;;17.15;;
3700;SDS011;1866;48.374;10.766;2023-01-28T01:10:58;102.80;;;16.30;;
3700;SDS011;1866;48.374;10.766;2023-01-28T01:13:25;108.30;;;15.98;;
3700;SDS011;1866;48.374;10.766;2023-01-28T01:15:59;103.65;;;16.65;;
3700;SDS011;1866;48.374;10.766;2023-01-28T01:18:29;109.13;;;15.88;;
3700;SDS011;1866;48.374;10.766;2023-01-28T01:20:56;104.80;;;15.60;;
3700;SDS011;1866;48.374;10.766;2023-01-28T01:23:24;103.93;;;15.68;;
3700;SDS011;1866;48.374;10.766;2023-01-28T01:25:59;102.68;;;15.70;;
3700;SDS011;1866;48.374;10.766;2023-01-28T01:28:26;106.22;;;15.18;;
3700;SDS011;1866;48.374;10.766;2023-01-28T01:30:58;101.10;;;15.48;;
3700;SDS011;1866;48.374;10.766;2023-01-28T01:33:26;108.57;;;15.77;;
3700;SDS011;1866;48.374;10.766;2023-01-28T01:35:53;104.63;;;16.67;;
3700;SDS011;1866;48.374;10.766;2023-01-28T01:38:23;106.70;;;15.52;;
3700;SDS011;1866;48.374;10.766;2023-01-28T01:40:50;105.30;;;16.60;;
3700;SDS011;1866;48.374;10.766;2023-01-28T01:43:20;104.50;;;16.60;;
3700;SDS011;1866;48.374;10.766;2023-01-28T01:45:49;104.50;;;16.50;;
3700;SDS011;1866;48.374;10.766;2023-01-28T01:48:23;105.35;;;15.50;;
3700;SDS011;1866;48.374;10.766;2023-01-28T01:50:55;105.65;;;17.50;;
3700;SDS011;1866;48.374;10.766;2023-01-28T01:53:26;103.15;;;14.88;;
3700;SDS011;1866;48.374;10.766;2023-01-28T01:55:58;106.90;;;16.10;;
3700;SDS011;1866;48.374;10.766;2023-01-28T01:58:30;107.97;;;15.73;;
3700;SDS011;1866;48.374;10.766;2023-01-28T02:01:02;111.22;;;16.42;;
3700;SDS011;1866;48.374;10.766;2023-01-28T02:03:32;108.03;;;16.23;;
3700;SDS011;1866;48.374;10.766;2023-01-28T02:06:05;106.28;;;16.83;;
3700;SDS011;1866;48.374;10.766;2023-01-28T02:08:34;103.10;;;15.15;;
3700;SDS011;1866;48.374;10.766;2023-01-28T02:11:01;104.28;;;15.95;;
3700;SDS011;1866;48.374;10.766;2023-01-28T02:13:34;106.43;;;15.52;;
3700;SDS011;1866;48.374;10.766;2023-01-28T02:16:05;105.03;;;16.90;;
3700;SDS011;1866;48.374;10.766;2023-01-28T02:18:33;109.10;;;17.10;;
3700;SDS011;1866;48.374;10.766;2023-01-28T02:21:05;106.00;;;16.20;;
3700;SDS011;1866;48.374;10.766;2023-01-28T02:24:00;101.90;;;14.50;;
3700;SDS011;1866;48.374;10.766;2023-01-28T02:26:59;106.50;;;15.50;;
3700;SDS011;1866;48.374;10.766;2023-01-28T02:29:40;104.60;;;15.63;;
3700;SDS011;1866;48.374;10.766;2023-01-28T02:32:14;103.80;;;15.52;;
3700;SDS011;1866;48.374;10.766;2023-01-28T02:34:47;101.65;;;14.75;;
3700;SDS011;1866;48.374;10.766;2023-01-28T02:37:20;100.80;;;14.85;;
3700;SDS011;1866;48.374;10.766;2023-01-28T02:39:51;111.10;;;17.35;;
3700;SDS011;1866;48.374;10.766;2023-01-28T02:42:22;102.53;;;14.40;;
3700;SDS011;1866;48.374;10.766;2023-01-28T02:44:56;99.18;;;13.75;;
3700;SDS011;1866;48.374;10.766;2023-01-28T02:47:23;111.40;;;16.00;;
3700;SDS011;1866;48.374;10.766;2023-01-28T02:50:08;101.03;;;14.02;;
3700;SDS011;1866;48.374;10.766;2023-01-28T02:52:41;102.35;;;15.90;;
3700;SDS011;1866;48.374;10.766;2023-01-28T02:55:42;103.50;;;15.35;;
3700;SDS011;1866;48.374;10.766;2023-01-28T02:58:17;103.07;;;15.65;;
3700;SDS011;1866;48.374;10.766;2023-01-28T03:00:53;100.78;;;13.95;;
3700;SDS011;1866;48.374;10.766;2023-01-28T03:03:27;101.68;;;14.90;;
3700;SDS011;1866;48.374;10.766;2023-01-28T03:06:06;101.20;;;15.60;;
3700;SDS011;1866;48.374;10.766;2023-01-28T03:08:36;108.63;;;15.30;;
3700;SDS011;1866;48.374;10.766;2023-01-28T03:11:25;102.65;;;15.30;;
3700;SDS011;1866;48.374;10.766;2023-01-28T03:14:11;104.80;;;15.80;;
3700;SDS011;1866;48.374;10.766;2023-01-28T03:16:59;102.78;;;16.25;;
3700;SDS011;1866;48.374;10.766;2023-01-28T03:19:45;103.90;;;15.45;;
3700;SDS011;1866;48.374;10.766;2023-01-28T03:22:31;100.78;;;14.65;;
3700;SDS011;1866;48.374;10.766;2023-01-28T03:25:18;108.15;;;14.77;;
3700;SDS011;1866;48.374;10.766;2023-01-28T03:28:07;103.30;;;14.43;;
3700;SDS011;1866;48.374;10.766;2023-01-28T03:30:58;102.88;;;15.65;;
3700;SDS011;1866;48.374;10.766;2023-01-28T03:33:48;109.13;;;16.30;;
3700;SDS011;1866;48.374;10.766;2023-01-28T03:36:37;103.35;;;16.33;;
3700;SDS011;1866;48.374;10.766;2023-01-28T03:39:15;105.05;;;16.38;;
3700;SDS011;1866;48.374;10.766;2023-01-28T03:41:54;105.65;;;16.13;;
3700;SDS011;1866;48.374;10.766;2023-01-28T03:44:23;104.25;;;15.93;;
3700;SDS011;1866;48.374;10.766;2023-01-28T03:47:08;105.20;;;15.90;;
3700;SDS011;1866;48.374;10.766;2023-01-28T03:49:38;102.60;;;14.95;;
3700;SDS011;1866;48.374;10.766;2023-01-28T03:52:06;104.53;;;16.25;;
3700;SDS011;1866;48.374;10.766;2023-01-28T03:54:33;105.57;;;15.30;;
3700;SDS011;1866;48.374;10.766;2023-01-28T03:57:01;104.35;;;16.02;;
3700;SDS011;1866;48.374;10.766;2023-01-28T03:59:30;107.18;;;16.77;;
3700;SDS011;1866;48.374;10.766;2023-01-28T04:01:56;106.70;;;17.58;;
3700;SDS011;1866;48.374;10.766;2023-01-28T04:04:24;101.05;;;15.15;;
3700;SDS011;1866;48.374;10.766;2023-01-28T04:06:52;103.88;;;16.27;;
3700;SDS011;1866;48.374;10.766;2023-01-28T04:09:20;103.20;;;14.70;;
3700;SDS011;1866;48.374;10.766;2023-01-28T04:11:47;102.90;;;15.90;;
3700;SDS011;1866;48.374;10.766;2023-01-28T04:14:16;103.38;;;15.65;;
3700;SDS011;1866;48.374;10.766;2023-01-28T04:16:43;102.70;;;15.85;;
3700;SDS011;1866;48.374;10.766;2023-01-28T04:19:10;107.32;;;16.65;;
3700;SDS011;1866;48.374;10.766;2023-01-28T04:21:37;102.25;;;14.93;;
3700;SDS011;1866;48.374;10.766;2023-01-28T04:24:06;103.53;;;14.50;;
3700;SDS011;1866;48.374;10.766;2023-01-28T04:26:34;102.03;;;15.52;;
3700;SDS011;1866;48.374;10.766;2023-01-28T04:29:01;106.97;;;16.05;;
3700;SDS011;1866;48.374;10.766;2023-01-28T04:31:28;102.93;;;16.08;;
3700;SDS011;1866;48.374;10.766;2023-01-28T04:33:55;107.80;;;15.82;;
3700;SDS011;1866;48.374;10.766;2023-01-28T04:36:24;105.55;;;14.60;;
3700;SDS011;1866;48.374;10.766;2023-01-28T04:38:51;99.10;;;14.07;;
3700;SDS011;1866;48.374;10.766;2023-01-28T04:41:19;113.25;;;15.35;;
3700;SDS011;1866;48.374;10.766;2023-01-28T04:43:46;103.82;;;15.20;;
3700;SDS011;1866;48.374;10.766;2023-01-28T04:46:14;105.88;;;14.63;;
3700;SDS011;1866;48.374;10.766;2023-01-28T04:48:41;105.28;;;15.43;;
3700;SDS011;1866;48.374;10.766;2023-01-28T04:51:08;104.50;;;14.20;;
3700;SDS011;1866;48.374;10.766;2023-01-28T04:53:35;102.70;;;14.13;;
3700;SDS011;1866;48.374;10.766;2023-01-28T04:56:03;103.07;;;14.45;;
3700;SDS011;1866;48.374;10.766;2023-01-28T04:58:31;101.38;;;14.10;;
3700;SDS011;1866;48.374;10.766;2023-01-28T05:00:58;102.60;;;14.80;;
3700;SDS011;1866;48.374;10.766;2023-01-28T05:03:25;106.80;;;14.93;;
3700;SDS011;1866;48.374;10.766;2023-01-28T05:05:53;102.55;;;13.82;;
3700;SDS011;1866;48.374;10.766;2023-01-28T05:08:20;102.72;;;14.23;;
3700;SDS011;1866;48.374;10.766;2023-01-28T05:10:47;102.82;;;14.35;;
3700;SDS011;1866;48.374;10.766;2023-01-28T05:13:14;109.03;;;15.75;;
3700;SDS011;1866;48.374;10.766;2023-01-28T05:15:42;102.40;;;14.48;;
3700;SDS011;1866;48.374;10.766;2023-01-28T05:18:09;102.93;;;15.20;;
3700;SDS011;1866;48.374;10.766;2023-01-28T05:20:36;100.75;;;14.43;;
3700;SDS011;1866;48.374;10.766;2023-01-28T05:23:03;117.63;;;15.70;;
3700;SDS011;1866;48.374;10.766;2023-01-28T05:25:31;99.65;;;13.25;;
3700;SDS011;1866;48.374;10.766;2023-01-28T05:27:58;107.93;;;14.90;;
3700;SDS011;1866;48.374;10.766;2023-01-28T05:30:26;104.25;;;14.52;;
3700;SDS011;1866;48.374;10.766;2023-01-28T05:32:56;106.47;;;15.00;;
3700;SDS011;1866;48.374;10.766;2023-01-28T05:35:24;104.30;;;14.48;;
3700;SDS011;1866;48.374;10.766;2023-01-28T05:37:51;103.10;;;14.38;;
3700;SDS011;1866;48.374;10.766;2023-01-28T05:40:18;104.07;;;15.07;;
3700;SDS011;1866;48.374;10.766;2023-01-28T05:42:45;99.38;;;13.80;;
3700;SDS011;1866;48.374;10.766;2023-01-28T05:45:12;104.07;;;14.73;;
3700;SDS011;1866;48.374;10.766;2023-01-28T05:47:39;105.90;;;15.45;;
3700;SDS011;1866;48.374;10.766;2023-01-28T05:50:10;101.60;;;14.25;;
3700;SDS011;1866;48.374;10.766;2023-01-28T05:52:39;104.43;;;13.25;;
3700;SDS011;1866;48.374;10.766;2023-01-28T05:55:07;100.07;;;13.60;;
3700;SDS011;1866;48.374;10.766;2023-01-28T05:57:35;102.13;;;14.35;;
3700;SDS011;1866;48.374;10.766;2023-01-28T06:00:02;98.90;;;13.20;;
3700;SDS011;1866;48.374;10.766;2023-01-28T06:02:31;102.40;;;14.32;;
3700;SDS011;1866;48.374;10.766;2023-01-28T06:04:59;102.10;;;13.50;;
3700;SDS011;1866;48.374;10.766;2023-01-28T06:07:27;100.88;;;13.43;;
3700;SDS011;1866;48.374;10.766;2023-01-28T06:09:56;99.70;;;13.35;;
3700;SDS011;1866;48.374;10.766;2023-01-28T06:12:23;102.95;;;14.48;;
3700;SDS011;1866;48.374;10.766;2023-01-28T06:14:50;106.50;;;15.20;;
3700;SDS011;1866;48.374;10.766;2023-01-28T06:17:17;111.53;;;14.43;;
3700;SDS011;1866;48.374;10.766;2023-01-28T06:19:44;101.93;;;12.88;;
3700;SDS011;1866;48.374;10.766;2023-01-28T06:22:12;101.40;;;12.75;;
3700;SDS011;1866;48.374;10.766;2023-01-28T06:24:40;102.30;;;13.35;;
3700;SDS011;1866;48.374;10.766;2023-01-28T06:27:07;99.50;;;12.80;;
3700;SDS011;1866;48.374;10.766;2023-01-28T06:29:34;99.70;;;13.35;;
3700;SDS011;1866;48.374;10.766;2023-01-28T06:32:01;99.85;;;13.63;;
3700;SDS011;1866;48.374;10.766;2023-01-28T06:34:28;103.15;;;14.30;;
3700;SDS011;1866;48.374;10.766;2023-01-28T06:36:54;100.38;;;13.05;;
3700;SDS011;1866;48.374;10.766;2023-01-28T06:39:23;102.80;;;14.05;;
3700;SDS011;1866;48.374;10.766;2023-01-28T06:41:55;97.88;;;11.73;;
3700;SDS011;1866;48.374;10.766;2023-01-28T06:44:22;104.43;;;14.50;;
3700;SDS011;1866;48.374;10.766;2023-01-28T06:46:49;100.13;;;13.35;;
3700;SDS011;1866;48.374;10.766;2023-01-28T06:49:15;99.07;;;12.43;;
3700;SDS011;1866;48.374;10.766;2023-01-28T06:51:42;100.28;;;13.85;;
3700;SDS011;1866;48.374;10.766;2023-01-28T06:54:09;106.85;;;14.68;;
3700;SDS011;1866;48.374;10.766;2023-01-28T06:56:37;100.95;;;14.13;;
3700;SDS011;1866;48.374;10.766;2023-01-28T06:59:06;102.82;;;13.90;;
3700;SDS011;1866;48.374;10.766;2023-01-28T07:01:33;101.40;;;13.80;;
3700;SDS011;1866;48.374;10.766;2023-01-28T07:04:00;100.65;;;13.32;;
3700;SDS011;1866;48.374;10.766;2023-01-28T07:06:27;99.10;;;13.35;;
3700;SDS011;1866;48.374;10.766;2023-01-28T07:08:56;101.38;;;13.52;;
3700;SDS011;1866;48.374;10.766;2023-01-28T07:11:23;102.22;;;12.77;;
3700;SDS011;1866;48.374;10.766;2023-01-28T07:13:50;98.45;;;11.70;;
3700;SDS011;1866;48.374;10.766;2023-01-28T07:16:20;103.70;;;14.43;;
3700;SDS011;1866;48.374;10.766;2023-01-28T07:18:47;108.53;;;14.15;;
3700;SDS011;1866;48.374;10.766;2023-01-28T07:21:17;98.90;;;12.10;;
3700;SDS011;1866;48.374;10.766;2023-01-28T07:23:44;104.68;;;14.68;;
3700;SDS011;1866;48.374;10.766;2023-01-28T07:26:12;104.25;;;14.75;;
3700;SDS011;1866;48.374;10.766;2023-01-28T07:28:39;102.60;;;12.65;;
3700;SDS011;1866;48.374;10.766;2023-01-28T07:31:06;102.13;;;13.90;;
3700;SDS011;1866;48.374;10.766;2023-01-28T07:33:34;98.03;;;12.10;;
3700;SDS011;1866;48.374;10.766;2023-01-28T07:36:01;102.03;;;13.65;;
3700;SDS011;1866;48.374;10.766;2023-01-28T07:38:29;98.63;;;11.80;;
3700;SDS011;1866;48.374;10.766;2023-01-28T07:40:56;104.22;;;13.85;;
3700;SDS011;1866;48.374;10.766;2023-01-28T07:43:22;100.57;;;12.40;;
3700;SDS011;1866;48.374;10.766;2023-01-28T07:45:51;101.88;;;12.93;;
3700;SDS011;1866;48.374;10.766;2023-01-28T07:48:18;101.07;;;12.38;;
3700;SDS011;1866;48.374;10.766;2023-01-28T07:50:46;103.53;;;13.75;;
3700;SDS011;1866;48.374;10.766;2023-01-28T07:53:15;102.40;;;12.30;;
3700;SDS011;1866;48.374;10.766;2023-01-28T07:55:45;108.53;;;13.32;;
3700;SDS011;1866;48.374;10.766;2023-01-28T07:58:11;103.07;;;13.13;;
3700;SDS011;1866;48.374;10.766;2023-01-28T08:00:39;102.65;;;13.32;;
3700;SDS011;1866;48.374;10.766;2023-01-28T08:03:08;100.88;;;13.35;;
3700;SDS011;1866;48.374;10.766;2023-01-28T08:05:38;100.93;;;13.13;;
3700;SDS011;1866;48.374;10.766;2023-01-28T08:08:08;103.78;;;14.25;;
3700;SDS011;1866;48.374;10.766;2023-01-28T08:10:36;99.50;;;12.85;;
3700;SDS011;1866;48.374;10.766;2023-01-28T08:13:04;115.15;;;14.60;;
3700;SDS011;1866;48.374;10.766;2023-01-28T08:15:32;104.78;;;12.82;;
3700;SDS011;1866;48.374;10.766;2023-01-28T08:18:01;100.90;;;13.05;;
3700;SDS011;1866;48.374;10.766;2023-01-28T08:20:32;103.20;;;13.35;;
3700;SDS011;1866;48.374;10.766;2023-01-28T08:23:04;104.28;;;12.90;;
3700;SDS011;1866;48.374;10.766;2023-01-28T08:25:33;98.80;;;12.98;;
3700;SDS011;1866;48.374;10.766;2023-01-28T08:28:01;105.65;;;13.25;;
3700;SDS011;1866;48.374;10.766;2023-01-28T08:30:29;102.40;;;13.45;;
3700;SDS011;1866;48.374;10.766;2023-01-28T08:32:57;103.72;;;13.45;;
3700;SDS011;1866;48.374;10.766;2023-01-28T08:35:25;103.75;;;13.13;;
3700;SDS011;1866;48.374;10.766;2023-01-28T08:37:53;101.43;;;12.63;;
3700;SDS011;1866;48.374;10.766;2023-01-28T08:40:20;101.95;;;13.75;;
3700;SDS011;1866;48.374;10.766;2023-01-28T08:42:49;107.15;;;14.65;;
3700;SDS011;1866;48.374;10.766;2023-01-28T08:45:21;101.55;;;12.95;;
3700;SDS011;1866;48.374;10.766;2023-01-28T08:47:50;101.75;;;13.02;;
3700;SDS011;1866;48.374;10.766;2023-01-28T08:50:20;104.93;;;12.15;;
3700;SDS011;1866;48.374;10.766;2023-01-28T08:52:53;106.20;;;13.15;;
3700;SDS011;1866;48.374;10.766;2023-01-28T08:55:21;100.95;;;12.93;;
3700;SDS011;1866;48.374;10.766;2023-01-28T08:57:50;106.45;;;14.27;;
3700;SDS011;1866;48.374;10.766;2023-01-28T09:03:07;100.35;;;13.02;;
3700;SDS011;1866;48.374;10.766;2023-01-28T09:05:35;98.43;;;12.60;;
3700;SDS011;1866;48.374;10.766;2023-01-28T09:08:05;102.93;;;12.95;;
3700;SDS011;1866;48.374;10.766;2023-01-28T09:10:40;101.60;;;12.52;;
3700;SDS011;1866;48.374;10.766;2023-01-28T09:13:11;102.68;;;12.98;;
3700;SDS011;1866;48.374;10.766;2023-01-28T09:15:40;103.68;;;13.05;;
3700;SDS011;1866;48.374;10.766;2023-01-28T09:18:08;105.75;;;13.00;;
3700;SDS011;1866;48.374;10.766;2023-01-28T09:20:36;102.53;;;13.15;;
3700;SDS011;1866;48.374;10.766;2023-01-28T09:23:03;104.30;;;13.30;;
3700;SDS011;1866;48.374;10.766;2023-01-28T09:25:31;104.18;;;13.05;;
3700;SDS011;1866;48.374;10.766;2023-01-28T09:28:00;103.00;;;11.75;;
3700;SDS011;1866;48.374;10.766;2023-01-28T09:30:29;102.47;;;12.75;;
3700;SDS011;1866;48.374;10.766;2023-01-28T09:32:56;100.97;;;12.02;;
3700;SDS011;1866;48.374;10.766;2023-01-28T09:35:25;107.55;;;13.85;;
3700;SDS011;1866;48.374;10.766;2023-01-28T09:37:55;98.40;;;12.10;;
3700;SDS011;1866;48.374;10.766;2023-01-28T09:40:27;104.53;;;13.10;;
3700;SDS011;1866;48.374;10.766;2023-01-28T09:43:01;102.45;;;11.90;;
3700;SDS011;1866;48.374;10.766;2023-01-28T09:45:40;102.15;;;12.90;;
3700;SDS011;1866;48.374;10.766;2023-01-28T09:48:11;100.00;;;11.40;;
3700;SDS011;1866;48.374;10.766;2023-01-28T09:50:42;100.35;;;11.90;;
3700;SDS011;1866;48.374;10.766;2023-01-28T09:53:15;105.05;;;12.60;;
3700;SDS011;1866;48.374;10.766;2023-01-28T09:55:45;98.90;;;11.30;;
3700;SDS011;1866;48.374;10.766;2023-01-28T09:58:16;99.63;;;11.27;;
3700;SDS011;1866;48.374;10.766;2023-01-28T10:00:50;99.05;;;11.30;;
3700;SDS011;1866;48.374;10.766;2023-01-28T10:03:27;104.82;;;11.43;;
3700;SDS011;1866;48.374;10.766;2023-01-28T10:06:05;99.40;;;10.77;;
3700;SDS011;1866;48.374;10.766;2023-01-28T10:08:50;100.72;;;12.15;;
3700;SDS011;1866;48.374;10.766;2023-01-28T10:11:35;103.10;;;12.18;;
3700;SDS011;1866;48.374;10.766;2023-01-28T10:14:18;105.72;;;12.32;;
3700;SDS011;1866;48.374;10.766;2023-01-28T10:16:56;99.20;;;10.65;;
3700;SDS011;1866;48.374;10.766;2023-01-28T10:19:35;101.15;;;11.45;;
3700;SDS011;1866;48.374;10.766;2023-01-28T10:22:18;102.18;;;11.23;;
3700;SDS011;1866;48.374;10.766;2023-01-28T10:24:49;99.90;;;10.35;;
3700;SDS011;1866;48.374;10.766;2023-01-28T10:27:28;104.78;;;11.85;;
3700;SDS011;1866;48.374;10.766;2023-01-28T10:29:57;98.65;;;10.98;;
3700;SDS011;1866;48.374;10.766;2023-01-28T10:32:28;100.78;;;10.75;;
3700;SDS011;1866;48.374;10.766;2023-01-28T10:34:58;105.00;;;11.68;;
3700;SDS011;1866;48.374;10.766;2023-01-28T10:37:27;98.90;;;10.32;;
3700;SDS011;1866;48.374;10.766;2023-01-28T10:39:57;100.93;;;9.95;;
3700;SDS011;1866;48.374;10.766;2023-01-28T10:42:26;100.05;;;10.15;;
3700;SDS011;1866;48.374;10.766;2023-01-28T10:44:55;99.95;;;10.73;;
3700;SDS011;1866;48.374;10.766;2023-01-28T10:47:28;101.22;;;10.38;;
3700;SDS011;1866;48.374;10.766;2023-01-28T10:49:58;101.57;;;10.65;;
3700;SDS011;1866;48.374;10.766;2023-01-28T10:52:29;97.88;;;9.80;;
3700;SDS011;1866;48.374;10.766;2023-01-28T10:55:00;101.30;;;10.38;;
3700;SDS011;1866;48.374;10.766;2023-01-28T10:57:29;98.88;;;9.40;;
3700;SDS011;1866;48.374;10.766;2023-01-28T11:00:08;105.60;;;10.48;;
3700;SDS011;1866;48.374;10.766;2023-01-28T11:02:38;101.45;;;10.30;;
3700;SDS011;1866;48.374;10.766;2023-01-28T11:05:14;105.07;;;10.95;;
3700;SDS011;1866;48.374;10.766;2023-01-28T11:07:46;98.38;;;9.93;;
3700;SDS011;1866;48.374;10.766;2023-01-28T11:10:28;101.78;;;10.57;;
3700;SDS011;1866;48.374;10.766;2023-01-28T11:12:58;100.80;;;10.82;;
3700;SDS011;1866;48.374;10.766;2023-01-28T11:15:27;101.57;;;10.65;;
3700;SDS011;1866;48.374;10.766;2023-01-28T11:18:01;102.03;;;11.05;;
3700;SDS011;1866;48.374;10.766;2023-01-28T11:20:34;103.88;;;11.18;;
3700;SDS011;1866;48.374;10.766;2023-01-28T11:23:03;101.68;;;10.43;;
3700;SDS011;1866;48.374;10.766;2023-01-28T11:25:31;103.85;;;10.38;;
3700;SDS011;1866;48.374;10.766;2023-01-28T11:28:00;101.38;;;10.85;;
3700;SDS011;1866;48.374;10.766;2023-01-28T11:30:29;102.40;;;9.48;;
3700;SDS011;1866;48.374;10.766;2023-01-28T11:33:02;101.78;;;10.35;;
3700;SDS011;1866;48.374;10.766;2023-01-28T11:35:50;98.28;;;9.23;;
3700;SDS011;1866;48.374;10.766;2023-01-28T11:38:19;102.82;;;9.75;;
3700;SDS011;1866;48.374;10.766;2023-01-28T11:40:51;100.10;;;10.43;;
3700;SDS011;1866;48.374;10.766;2023-01-28T11:43:19;102.82;;;9.82;;
3700;SDS011;1866;48.374;10.766;2023-01-28T11:45:53;98.15;;;9.35;;
3700;SDS011;1866;48.374;10.766;2023-01-28T11:48:33;102.35;;;9.75;;
3700;SDS011;1866;48.374;10.766;2023-01-28T11:51:20;101.65;;;9.73;;
3700;SDS011;1866;48.374;10.766;2023-01-28T11:54:01;101.22;;;10.55;;
3700;SDS011;1866;48.374;10.766;2023-01-28T11:56:51;99.88;;;9.30;;
3700;SDS011;1866;48.374;10.766;2023-01-28T11:59:34;99.75;;;9.40;;
3700;SDS011;1866;48.374;10.766;2023-01-28T12:02:25;100.30;;;9.60;;
3700;SDS011;1866;48.374;10.766;2023-01-28T12:05:10;99.45;;;8.98;;
3700;SDS011;1866;48.374;10.766;2023-01-28T12:07:48;100.05;;;9.93;;
3700;SDS011;1866;48.374;10.766;2023-01-28T12:10:23;98.85;;;8.85;;
3700;SDS011;1866;48.374;10.766;2023-01-28T12:13:03;99.75;;;8.82;;
3700;SDS011;1866;48.374;10.766;2023-01-28T12:15:47;97.47;;;8.85;;
3700;SDS011;1866;48.374;10.766;2023-01-28T12:18:31;100.30;;;9.07;;
3700;SDS011;1866;48.374;10.766;2023-01-28T12:21:21;98.10;;;9.18;;
3700;SDS011;1866;48.374;10.766;2023-01-28T12:23:57;101.82;;;9.77;;
3700;SDS011;1866;48.374;10.766;2023-01-28T12:26:38;103.95;;;10.68;;
3700;SDS011;1866;48.374;10.766;2023-01-28T12:29:17;103.13;;;11.00;;
3700;SDS011;1866;48.374;10.766;2023-01-28T12:37:54;98.82;;;9.45;;
3700;SDS011;1866;48.374;10.766;2023-01-28T12:40:37;100.63;;;9.80;;
3700;SDS011;1866;48.374;10.766;2023-01-28T12:43:18;100.38;;;9.30;;
3700;SDS011;1866;48.374;10.766;2023-01-28T12:45:52;101.93;;;10.15;;
3700;SDS011;1866;48.374;10.766;2023-01-28T12:48:25;100.10;;;9.85;;
3700;SDS011;1866;48.374;10.766;2023-01-28T12:51:01;101.60;;;9.45;;
3700;SDS011;1866;48.374;10.766;2023-01-28T12:53:39;99.55;;;9.20;;
3700;SDS011;1866;48.374;10.766;2023-01-28T12:56:13;99.32;;;9.05;;
3700;SDS011;1866;48.374;10.766;2023-01-28T12:58:44;99.40;;;8.43;;
3700;SDS011;1866;48.374;10.766;2023-01-28T13:01:17;102.43;;;10.18;;
3700;SDS011;1866;48.374;10.766;2023-01-28T13:03:49;100.38;;;9.52;;
3700;SDS011;1866;48.374;10.766;2023-01-28T13:06:23;102.07;;;9.65;;
3700;SDS011;1866;48.374;10.766;2023-01-28T13:08:59;102.43;;;9.65;;
3700;SDS011;1866;48.374;10.766;2023-01-28T13:11:35;96.82;;;8.65;;
3700;SDS011;1866;48.374;10.766;2023-01-28T13:14:03;101.47;;;9.13;;
3700;SDS011;1866;48.374;10.766;2023-01-28T13:16:32;99.43;;;9.02;;
3700;SDS011;1866;48.374;10.766;2023-01-28T13:19:22;100.00;;;9.25;;
3700;SDS011;1866;48.374;10.766;2023-01-28T13:22:08;99.00;;;8.75;;
3700;SDS011;1866;48.374;10.766;2023-01-28T13:24:38;100.28;;;9.20;;
3700;SDS011;1866;48.374;10.766;2023-01-28T13:27:09;98.03;;;8.55;;
3700;SDS011;1866;48.374;10.766;2023-01-28T13:29:40;101.90;;;10.07;;
3700;SDS011;1866;48.374;10.766;2023-01-28T13:32:29;100.72;;;9.80;;
3700;SDS011;1866;48.374;10.766;2023-01-28T13:34:59;103.45;;;9.52;;
3700;SDS011;1866;48.374;10.766;2023-01-28T13:37:31;99.43;;;8.85;;
3700;SDS011;1866;48.374;10.766;2023-01-28T13:40:07;100.90;;;9.30;;
3700;SDS011;1866;48.374;10.766;2023-01-28T13:42:59;98.68;;;8.18;;
3700;SDS011;1866;48.374;10.766;2023-01-28T13:45:29;100.22;;;9.02;;
3700;SDS011;1866;48.374;10.766;2023-01-28T13:47:59;99.35;;;9.98;;
3700;SDS011;1866;48.374;10.766;2023-01-28T13:50:41;100.90;;;9.10;;
3700;SDS011;1866;48.374;10.766;2023-01-28T13:53:15;97.47;;;8.05;;
3700;SDS011;1866;48.374;10.766;2023-01-28T13:55:51;97.32;;;9.07;;
3700;SDS011;1866;48.374;10.766;2023-01-28T14:01:27;98.18;;;8.18;;
3700;SDS011;1866;48.374;10.766;2023-01-28T14:04:21;100.30;;;9.45;;
3700;SDS011;1866;48.374;10.766;2023-01-28T14:07:08;99.55;;;9.20;;
3700;SDS011;1866;48.374;10.766;2023-01-28T14:12:51;99.88;;;9.75;;
3700;SDS011;1866;48.374;10.766;2023-01-28T14:15:36;104.47;;;9.48;;
3700;SDS011;1866;48.374;10.766;2023-01-28T14:18:25;102.47;;;10.18;;
3700;SDS011;1866;48.374;10.766;2023-01-28T14:20:54;101.30;;;9.57;;
3700;SDS011;1866;48.374;10.766;2023-01-28T14:23:26;95.13;;;8.25;;
3700;SDS011;1866;48.374;10.766;2023-01-28T14:26:00;101.63;;;10.25;;
3700;SDS011;1866;48.374;10.766;2023-01-28T14:28:39;98.82;;;9.90;;
3700;SDS011;1866;48.374;10.766;2023-01-28T14:31:13;100.78;;;9.98;;
3700;SDS011;1866;48.374;10.766;2023-01-28T14:33:48;104.55;;;11.00;;
3700;SDS011;1866;48.374;10.766;2023-01-28T14:36:15;99.75;;;9.80;;
3700;SDS011;1866;48.374;10.766;2023-01-28T14:38:43;98.13;;;10.07;;
3700;SDS011;1866;48.374;10.766;2023-01-28T14:41:16;104.32;;;10.88;;
3700;SDS011;1866;48.374;10.766;2023-01-28T14:43:49;102.28;;;10.65;;
3700;SDS011;1866;48.374;10.766;2023-01-28T14:46:21;100.25;;;9.95;;
3700;SDS011;1866;48.374;10.766;2023-01-28T14:49:00;104.07;;;11.90;;
3700;SDS011;1866;48.374;10.766;2023-01-28T14:51:53;101.72;;;11.05;;
3700;SDS011;1866;48.374;10.766;2023-01-28T14:54:48;110.68;;;12.13;;
3700;SDS011;1866;48.374;10.766;2023-01-28T14:57:29;98.63;;;10.80;;
3700;SDS011;1866;48.374;10.766;2023-01-28T15:00:16;102.10;;;10.95;;
3700;SDS011;1866;48.374;10.766;2023-01-28T15:02:45;102.95;;;10.75;;
3700;SDS011;1866;48.374;10.766;2023-01-28T15:05:15;102.22;;;10.80;;
3700;SDS011;1866;48.374;10.766;2023-01-28T15:07:44;106.38;;;10.63;;
3700;SDS011;1866;48.374;10.766;2023-01-28T15:10:14;102.68;;;10.93;;